Time;durP1;ratioP1;P1;durP2;ratioP2;P2;SDS_P1;SDS_P2;PMS_P1;PMS_P2;Temp;Humidity;BMP_temperature;BMP_pressure;BME280_temperature;BME280_humidity;BME280_pressure;Samples;Min_cycle;Max_cycle;Signal;HPM_P1;HPM_P2
2023/08/20 00:01:25;;;;;;;16.38;14.70;;;;;;;;;;5027322;28;20037;-74
2023/08/20 00:03:51;;;;;;;17.40;15.63;;;;;;;;;;5029441;28;20036;-74
2023/08/20 00:06:17;;;;;;;17.00;15.02;;;;;;;;;;5027398;28;20033;-74
2023/08/20 00:08:43;;;;;;;16.50;14.90;;;;;;;;;;5027190;28;20496;-74
2023/08/20 00:11:09;;;;;;;17.13;15.35;;;;;;;;;;5011550;28;20037;-74
2023/08/20 00:13:35;;;;;;;16.77;15.07;;;;;;;;;;5029305;28;20060;-74
2023/08/20 00:16:01;;;;;;;17.05;15.25;;;;;;;;;;5009474;28;20085;-74
2023/08/20 00:18:27;;;;;;;19.88;15.10;;;;;;;;;;5028443;28;20198;-74
2023/08/20 00:20:54;;;;;;;17.48;15.10;;;;;;;;;;5027763;28;20394;-74
2023/08/20 00:23:20;;;;;;;17.63;15.82;;;;;;;;;;5026484;28;20433;-74
2023/08/20 00:25:45;;;;;;;19.92;16.45;;;;;;;;;;5028384;28;20041;-74
2023/08/20 00:28:11;;;;;;;16.90;15.10;;;;;;;;;;5028029;28;20290;-75
2023/08/20 00:30:37;;;;;;;17.08;15.38;;;;;;;;;;5029299;28;20029;-75
2023/08/20 00:33:02;;;;;;;16.60;14.93;;;;;;;;;;5026647;28;20025;-74
2023/08/20 00:35:28;;;;;;;19.05;15.35;;;;;;;;;;5027026;28;20116;-74
2023/08/20 00:37:54;;;;;;;18.17;16.08;;;;;;;;;;5027258;28;20033;-75
2023/08/20 00:40:19;;;;;;;18.08;15.85;;;;;;;;;;5026995;28;20111;-74
2023/08/20 00:42:45;;;;;;;18.73;16.80;;;;;;;;;;5026460;28;20040;-74
2023/08/20 00:45:11;;;;;;;16.77;15.10;;;;;;;;;;5026616;28;20037;-74
2023/08/20 00:47:38;;;;;;;18.92;15.95;;;;;;;;;;5027052;28;20103;-73
2023/08/20 00:50:06;;;;;;;18.70;16.23;;;;;;;;;;5010978;28;20105;-74
2023/08/20 00:52:32;;;;;;;20.13;16.20;;;;;;;;;;5027371;28;20358;-74
2023/08/20 00:54:58;;;;;;;24.13;16.20;;;;;;;;;;5027912;28;20519;-74
2023/08/20 00:57:26;;;;;;;17.20;15.40;;;;;;;;;;5027117;28;20033;-75
2023/08/20 00:59:54;;;;;;;18.83;15.80;;;;;;;;;;5022274;28;20489;-74
2023/08/20 01:02:20;;;;;;;16.50;14.80;;;;;;;;;;5002135;28;20045;-74
2023/08/20 01:04:48;;;;;;;18.40;16.38;;;;;;;;;;4995329;28;20080;-74
2023/08/20 01:07:38;;;;;;;18.00;16.15;;;;;;;;;;5023225;28;20095;-74
2023/08/20 01:10:16;;;;;;;17.25;15.27;;;;;;;;;;5023656;28;20067;-74
2023/08/20 01:12:43;;;;;;;19.85;16.55;;;;;;;;;;5025967;28;20033;-74
2023/08/20 01:15:13;;;;;;;16.80;15.20;;;;;;;;;;5058941;28;20052;-73
2023/08/20 01:17:42;;;;;;;17.88;14.88;;;;;;;;;;5020392;28;20108;-74
2023/08/20 01:20:12;;;;;;;20.10;15.82;;;;;;;;;;5026884;28;20420;-74
2023/08/20 01:22:44;;;;;;;18.27;15.38;;;;;;;;;;5016297;28;20033;-74
2023/08/20 01:25:34;;;;;;;17.95;16.15;;;;;;;;;;5025575;28;20049;-74
2023/08/20 01:28:18;;;;;;;17.70;15.57;;;;;;;;;;5025915;28;20104;-73
2023/08/20 01:30:44;;;;;;;16.95;15.25;;;;;;;;;;5009087;28;20896;-74
2023/08/20 01:33:12;;;;;;;18.15;15.40;;;;;;;;;;5043080;28;20029;-75
2023/08/20 01:35:38;;;;;;;18.30;16.33;;;;;;;;;;5008545;28;20559;-74
2023/08/20 01:38:14;;;;;;;16.10;14.55;;;;;;;;;;5011142;28;20278;-74
2023/08/20 01:40:39;;;;;;;16.65;15.15;;;;;;;;;;5010457;28;20405;-75
2023/08/20 01:43:05;;;;;;;16.98;14.93;;;;;;;;;;5026382;28;20060;-74
2023/08/20 01:45:30;;;;;;;17.58;15.25;;;;;;;;;;5007639;28;20033;-74
2023/08/20 01:47:56;;;;;;;18.35;15.00;;;;;;;;;;5025858;28;20068;-74
2023/08/20 01:50:22;;;;;;;17.52;15.70;;;;;;;;;;5010164;28;20049;-75
2023/08/20 01:52:48;;;;;;;16.77;15.02;;;;;;;;;;5025637;28;20060;-74
2023/08/20 01:55:14;;;;;;;17.58;15.88;;;;;;;;;;5008839;28;20116;-74
2023/08/20 01:57:39;;;;;;;18.50;16.10;;;;;;;;;;5025957;28;20029;-74
2023/08/20 02:00:06;;;;;;;18.98;16.08;;;;;;;;;;5008631;28;20049;-74
2023/08/20 02:02:39;;;;;;;17.40;15.60;;;;;;;;;;5025814;28;20040;-74
2023/08/20 02:05:05;;;;;;;18.05;16.10;;;;;;;;;;5024996;28;20037;-74
2023/08/20 02:07:31;;;;;;;19.02;16.80;;;;;;;;;;5010086;28;20528;-73
2023/08/20 02:09:58;;;;;;;21.00;17.48;;;;;;;;;;5025474;28;20042;-74
2023/08/20 02:12:25;;;;;;;19.85;15.77;;;;;;;;;;5026994;28;20029;-74
2023/08/20 02:14:51;;;;;;;17.17;15.43;;;;;;;;;;5023972;28;20593;-74
2023/08/20 02:17:21;;;;;;;17.80;16.15;;;;;;;;;;5009125;28;20037;-74
2023/08/20 02:19:47;;;;;;;19.77;16.27;;;;;;;;;;5024618;28;20037;-74
2023/08/20 02:22:13;;;;;;;18.00;16.20;;;;;;;;;;5025040;28;20028;-74
2023/08/20 02:24:38;;;;;;;18.63;16.63;;;;;;;;;;5028208;28;20041;-74
2023/08/20 02:27:04;;;;;;;21.15;16.75;;;;;;;;;;5009480;28;20429;-75
2023/08/20 02:29:30;;;;;;;19.77;16.20;;;;;;;;;;5010222;28;20052;-74
2023/08/20 02:31:55;;;;;;;19.75;17.13;;;;;;;;;;5023618;28;20076;-74
2023/08/20 02:34:22;;;;;;;19.83;17.75;;;;;;;;;;5024640;28;20960;-74
2023/08/20 02:36:48;;;;;;;20.45;17.30;;;;;;;;;;5026542;28;20505;-74
2023/08/20 02:39:14;;;;;;;19.67;16.27;;;;;;;;;;5026261;28;20107;-74
2023/08/20 02:41:41;;;;;;;21.27;16.70;;;;;;;;;;5020613;28;20516;-73
2023/08/20 02:44:08;;;;;;;22.92;18.08;;;;;;;;;;5008308;28;20322;-74
2023/08/20 02:46:34;;;;;;;23.02;17.75;;;;;;;;;;5026073;28;20048;-74
2023/08/20 02:49:00;;;;;;;19.85;17.75;;;;;;;;;;5022947;28;20182;-73
2023/08/20 02:51:27;;;;;;;21.27;18.33;;;;;;;;;;5015840;28;20057;-74
2023/08/20 02:53:53;;;;;;;20.30;18.35;;;;;;;;;;5012210;28;20036;-74
2023/08/20 02:56:18;;;;;;;23.20;17.45;;;;;;;;;;5024321;28;20037;-74
2023/08/20 02:58:44;;;;;;;20.95;18.65;;;;;;;;;;5025091;28;20401;-75
2023/08/20 03:01:20;;;;;;;20.88;18.73;;;;;;;;;;5007926;28;20300;-74
2023/08/20 03:03:47;;;;;;;20.38;18.25;;;;;;;;;;5008043;28;20120;-74
2023/08/20 03:06:13;;;;;;;23.10;17.77;;;;;;;;;;5007732;28;20458;-73
2023/08/20 03:08:39;;;;;;;20.48;17.95;;;;;;;;;;5020390;28;20041;-74
2023/08/20 03:11:04;;;;;;;20.48;17.88;;;;;;;;;;5021821;28;20436;-74
2023/08/20 03:13:30;;;;;;;20.05;17.80;;;;;;;;;;5021533;28;20489;-74
2023/08/20 03:15:56;;;;;;;17.88;16.08;;;;;;;;;;5003449;28;20382;-74
2023/08/20 03:18:21;;;;;;;19.02;17.02;;;;;;;;;;5021694;28;20037;-74
2023/08/20 03:20:47;;;;;;;20.48;18.27;;;;;;;;;;5021269;28;20365;-74
2023/08/20 03:23:12;;;;;;;18.55;16.48;;;;;;;;;;5020067;28;20417;-73
2023/08/20 03:25:38;;;;;;;18.42;16.63;;;;;;;;;;5021345;28;20037;-73
2023/08/20 03:28:04;;;;;;;19.27;17.17;;;;;;;;;;5021898;28;20044;-73
2023/08/20 03:30:31;;;;;;;18.80;17.00;;;;;;;;;;5005396;28;20041;-74
2023/08/20 03:32:57;;;;;;;18.75;16.88;;;;;;;;;;5023202;28;20112;-74
2023/08/20 03:35:23;;;;;;;18.15;16.45;;;;;;;;;;5003449;28;20127;-75
2023/08/20 03:37:49;;;;;;;21.75;16.55;;;;;;;;;;5005261;28;20065;-75
2023/08/20 03:40:15;;;;;;;18.50;16.70;;;;;;;;;;5021348;28;20048;-74
2023/08/20 03:42:41;;;;;;;18.65;16.63;;;;;;;;;;5021356;28;20156;-74
2023/08/20 03:45:09;;;;;;;19.98;16.75;;;;;;;;;;5021019;28;20404;-74
2023/08/20 03:47:36;;;;;;;19.70;17.45;;;;;;;;;;5021545;28;20489;-74
2023/08/20 03:50:03;;;;;;;19.38;17.33;;;;;;;;;;5022129;28;20033;-74
2023/08/20 03:52:29;;;;;;;19.60;17.60;;;;;;;;;;5021660;28;20025;-74
2023/08/20 03:54:54;;;;;;;20.02;17.90;;;;;;;;;;5021272;28;20465;-74
2023/08/20 03:57:20;;;;;;;19.45;17.33;;;;;;;;;;5020941;28;20029;-74
2023/08/20 03:59:45;;;;;;;20.70;18.65;;;;;;;;;;5021125;28;20034;-75
2023/08/20 04:02:13;;;;;;;19.23;17.20;;;;;;;;;;5022971;28;20560;-74
2023/08/20 04:04:39;;;;;;;20.52;18.17;;;;;;;;;;5023351;28;20413;-72
2023/08/20 04:07:04;;;;;;;20.58;17.40;;;;;;;;;;5004962;28;20038;-72
2023/08/20 04:09:33;;;;;;;19.77;17.60;;;;;;;;;;5024275;28;20444;-72
2023/08/20 04:11:59;;;;;;;20.70;17.02;;;;;;;;;;5025029;28;20075;-73
2023/08/20 04:14:24;;;;;;;20.77;18.27;;;;;;;;;;5024101;28;20041;-73
2023/08/20 04:16:51;;;;;;;23.13;18.73;;;;;;;;;;5021249;28;20033;-72
2023/08/20 04:19:17;;;;;;;21.48;17.50;;;;;;;;;;5022686;28;20637;-72
2023/08/20 04:21:43;;;;;;;21.83;19.55;;;;;;;;;;5023125;28;20100;-72
2023/08/20 04:24:09;;;;;;;21.20;19.08;;;;;;;;;;5023847;28;20520;-70
2023/08/20 04:26:34;;;;;;;20.92;18.83;;;;;;;;;;5023358;28;20040;-67
2023/08/20 04:29:01;;;;;;;23.98;18.67;;;;;;;;;;5007797;28;20516;-67
2023/08/20 04:31:27;;;;;;;20.73;18.63;;;;;;;;;;5007954;28;20231;-68
2023/08/20 04:34:01;;;;;;;21.17;19.10;;;;;;;;;;5005582;28;20042;-67
2023/08/20 04:36:37;;;;;;;20.77;18.83;;;;;;;;;;5023872;28;20029;-68
2023/08/20 04:39:04;;;;;;;21.45;18.08;;;;;;;;;;5025721;28;20474;-68
2023/08/20 04:41:31;;;;;;;19.45;17.55;;;;;;;;;;5028129;28;20096;-68
2023/08/20 04:43:57;;;;;;;19.67;16.90;;;;;;;;;;5026680;28;20049;-69
2023/08/20 04:46:23;;;;;;;20.23;18.10;;;;;;;;;;5026840;28;20036;-68
2023/08/20 04:48:49;;;;;;;19.88;17.38;;;;;;;;;;5027343;28;20052;-68
2023/08/20 04:51:15;;;;;;;19.60;17.55;;;;;;;;;;5017542;28;20064;-68
2023/08/20 04:53:41;;;;;;;24.95;17.77;;;;;;;;;;5027749;28;20064;-67
2023/08/20 04:56:08;;;;;;;19.83;17.67;;;;;;;;;;5023234;28;20049;-68
2023/08/20 04:58:34;;;;;;;20.98;18.83;;;;;;;;;;5006977;28;20360;-69
2023/08/20 05:01:00;;;;;;;19.48;17.58;;;;;;;;;;5026624;28;20120;-68
2023/08/20 05:03:26;;;;;;;19.95;17.92;;;;;;;;;;5026251;28;20064;-69
2023/08/20 05:05:51;;;;;;;19.05;17.25;;;;;;;;;;5028612;28;20338;-69
2023/08/20 05:08:17;;;;;;;19.92;18.02;;;;;;;;;;5027531;28;20033;-67
2023/08/20 05:10:43;;;;;;;19.75;17.40;;;;;;;;;;5026420;28;20095;-69
2023/08/20 05:13:09;;;;;;;18.63;16.88;;;;;;;;;;5027458;28;20022;-68
2023/08/20 05:15:34;;;;;;;18.80;16.88;;;;;;;;;;5025206;28;20029;-68
2023/08/20 05:18:01;;;;;;;17.35;15.60;;;;;;;;;;5026624;28;20033;-69
2023/08/20 05:20:27;;;;;;;17.27;15.68;;;;;;;;;;5059819;28;20192;-68
2023/08/20 05:22:53;;;;;;;17.40;15.75;;;;;;;;;;5025695;28;20052;-68
2023/08/20 05:25:19;;;;;;;18.40;16.55;;;;;;;;;;5026449;28;20501;-69
2023/08/20 05:27:46;;;;;;;17.58;16.00;;;;;;;;;;4993726;28;20535;-68
2023/08/20 05:30:12;;;;;;;18.13;16.25;;;;;;;;;;5026463;28;20029;-68
2023/08/20 05:32:38;;;;;;;17.20;15.60;;;;;;;;;;5022805;28;20185;-68
2023/08/20 05:35:04;;;;;;;15.80;14.30;;;;;;;;;;5010195;28;20393;-72
2023/08/20 05:37:30;;;;;;;15.02;13.73;;;;;;;;;;5025948;28;20484;-73
2023/08/20 05:39:56;;;;;;;14.88;13.57;;;;;;;;;;5026572;28;20083;-73
2023/08/20 05:42:22;;;;;;;15.07;13.68;;;;;;;;;;5025349;28;20059;-73
2023/08/20 05:44:53;;;;;;;16.35;14.60;;;;;;;;;;5023708;28;20338;-73
2023/08/20 05:47:24;;;;;;;20.30;13.95;;;;;;;;;;5026000;28;20061;-73
2023/08/20 05:49:50;;;;;;;16.33;14.63;;;;;;;;;;5025491;28;20037;-72
2023/08/20 05:52:16;;;;;;;17.75;15.05;;;;;;;;;;5026083;28;20380;-72
2023/08/20 05:54:43;;;;;;;16.00;14.30;;;;;;;;;;5026551;28;20049;-73
2023/08/20 05:57:09;;;;;;;16.50;14.82;;;;;;;;;;5024603;28;20640;-73
2023/08/20 05:59:35;;;;;;;16.75;15.00;;;;;;;;;;5026657;28;20116;-73
2023/08/20 06:02:02;;;;;;;16.60;14.90;;;;;;;;;;5026085;28;20057;-73
2023/08/20 06:04:28;;;;;;;17.23;15.55;;;;;;;;;;5006124;28;20037;-73
2023/08/20 06:06:53;;;;;;;18.23;15.52;;;;;;;;;;5027899;28;20025;-74
2023/08/20 06:09:19;;;;;;;17.52;15.73;;;;;;;;;;5026217;28;20099;-73
2023/08/20 06:11:44;;;;;;;16.17;14.48;;;;;;;;;;5027280;28;20306;-73
2023/08/20 06:14:10;;;;;;;17.70;15.95;;;;;;;;;;5024524;28;20045;-73
2023/08/20 06:16:36;;;;;;;16.80;15.05;;;;;;;;;;5024814;28;20499;-73
2023/08/20 06:19:02;;;;;;;15.68;14.10;;;;;;;;;;5028162;28;20034;-74
2023/08/20 06:21:28;;;;;;;16.50;14.90;;;;;;;;;;5029558;28;20128;-73
2023/08/20 06:23:53;;;;;;;15.30;13.80;;;;;;;;;;5026329;28;20499;-73
2023/08/20 06:26:20;;;;;;;15.60;13.98;;;;;;;;;;5025868;28;20061;-73
2023/08/20 06:28:46;;;;;;;14.40;13.10;;;;;;;;;;5027682;28;20037;-73
2023/08/20 06:31:11;;;;;;;17.50;13.73;;;;;;;;;;5009632;28;20037;-74
2023/08/20 06:33:38;;;;;;;14.45;13.15;;;;;;;;;;4990841;28;20443;-73
2023/08/20 06:36:03;;;;;;;14.65;12.98;;;;;;;;;;5025477;28;20049;-74
2023/08/20 06:38:29;;;;;;;13.18;12.13;;;;;;;;;;5026389;28;20234;-74
2023/08/20 06:40:56;;;;;;;13.25;12.13;;;;;;;;;;5026575;28;20037;-73
2023/08/20 06:43:21;;;;;;;14.25;12.50;;;;;;;;;;5023755;28;20037;-74
2023/08/20 06:45:47;;;;;;;13.57;12.38;;;;;;;;;;4991499;28;20455;-74
2023/08/20 06:48:13;;;;;;;13.55;12.23;;;;;;;;;;4992348;28;20569;-73
2023/08/20 06:50:41;;;;;;;12.52;11.40;;;;;;;;;;5010621;28;20055;-74
2023/08/20 06:53:07;;;;;;;12.57;11.27;;;;;;;;;;5026084;28;20037;-74
2023/08/20 06:55:32;;;;;;;12.75;11.30;;;;;;;;;;5026111;28;20040;-74
2023/08/20 06:57:58;;;;;;;12.30;11.20;;;;;;;;;;5024184;28;20037;-74
2023/08/20 07:00:23;;;;;;;12.45;11.23;;;;;;;;;;5010739;28;20057;-74
2023/08/20 07:02:49;;;;;;;14.40;11.73;;;;;;;;;;5009839;28;20116;-74
2023/08/20 07:05:14;;;;;;;12.90;11.30;;;;;;;;;;5025683;28;20496;-74
2023/08/20 07:07:40;;;;;;;12.63;11.43;;;;;;;;;;5023129;28;20034;-74
2023/08/20 07:10:06;;;;;;;13.00;11.70;;;;;;;;;;5027345;28;20037;-74
2023/08/20 07:12:32;;;;;;;12.52;11.20;;;;;;;;;;5026042;28;20040;-74
2023/08/20 07:14:57;;;;;;;12.48;11.32;;;;;;;;;;5023725;28;20030;-73
2023/08/20 07:17:23;;;;;;;12.30;10.95;;;;;;;;;;5024794;28;20090;-73
2023/08/20 07:19:48;;;;;;;12.18;10.80;;;;;;;;;;5025752;28;20131;-74
2023/08/20 07:22:14;;;;;;;12.10;10.88;;;;;;;;;;5024213;28;20116;-74
2023/08/20 07:24:39;;;;;;;13.60;11.57;;;;;;;;;;5023730;28;20102;-74
2023/08/20 07:27:10;;;;;;;13.38;11.75;;;;;;;;;;5025557;28;20709;-74
2023/08/20 07:29:36;;;;;;;13.10;10.93;;;;;;;;;;5025656;28;20502;-74
2023/08/20 07:32:03;;;;;;;14.43;10.93;;;;;;;;;;5025854;28;20116;-74
2023/08/20 07:34:30;;;;;;;12.18;10.88;;;;;;;;;;5024555;28;20072;-74
2023/08/20 07:36:56;;;;;;;13.07;12.05;;;;;;;;;;5022207;28;20045;-74
2023/08/20 07:39:22;;;;;;;12.23;11.00;;;;;;;;;;5026323;28;20516;-74
2023/08/20 07:41:48;;;;;;;12.45;11.35;;;;;;;;;;5023913;28;20068;-74
2023/08/20 07:44:14;;;;;;;17.30;12.20;;;;;;;;;;5025595;28;20393;-74
2023/08/20 07:46:39;;;;;;;12.63;11.05;;;;;;;;;;5026137;28;20037;-74
2023/08/20 07:49:05;;;;;;;11.88;10.77;;;;;;;;;;5023345;28;20467;-74
2023/08/20 07:51:30;;;;;;;12.25;10.95;;;;;;;;;;5023792;28;20450;-74
2023/08/20 07:53:58;;;;;;;13.27;11.73;;;;;;;;;;5026392;28;20068;-74
2023/08/20 07:56:23;;;;;;;14.35;11.77;;;;;;;;;;5023304;28;20059;-74
2023/08/20 07:58:49;;;;;;;13.32;11.95;;;;;;;;;;5024519;28;20116;-74
2023/08/20 08:01:14;;;;;;;14.82;11.93;;;;;;;;;;5023780;28;20033;-74
2023/08/20 08:03:40;;;;;;;12.68;11.40;;;;;;;;;;5024721;28;20037;-73
2023/08/20 08:06:06;;;;;;;12.15;11.15;;;;;;;;;;5024654;28;20041;-74
2023/08/20 08:08:31;;;;;;;16.15;12.07;;;;;;;;;;5024409;28;20041;-73
2023/08/20 08:10:57;;;;;;;12.68;11.50;;;;;;;;;;5017573;28;20030;-73
2023/08/20 08:13:23;;;;;;;12.63;11.43;;;;;;;;;;5026322;28;20237;-74
2023/08/20 08:15:50;;;;;;;12.60;11.30;;;;;;;;;;5008743;28;20045;-74
2023/08/20 08:18:15;;;;;;;12.18;9.93;;;;;;;;;;5026252;28;20064;-74
2023/08/20 08:20:41;;;;;;;13.23;10.40;;;;;;;;;;5026550;28;20025;-74
2023/08/20 08:23:06;;;;;;;17.63;11.02;;;;;;;;;;5028250;28;20110;-74
2023/08/20 08:25:32;;;;;;;11.18;10.23;;;;;;;;;;5026321;28;20389;-74
2023/08/20 08:27:58;;;;;;;12.80;10.60;;;;;;;;;;5024994;28;20051;-74
2023/08/20 08:30:23;;;;;;;14.23;11.30;;;;;;;;;;5025389;28;20044;-74
2023/08/20 08:32:49;;;;;;;11.65;10.55;;;;;;;;;;5027405;28;20038;-74
2023/08/20 08:35:16;;;;;;;15.85;10.23;;;;;;;;;;5027503;28;20065;-74
2023/08/20 08:37:41;;;;;;;13.57;10.77;;;;;;;;;;5028863;28;20120;-75
2023/08/20 08:40:08;;;;;;;11.90;10.68;;;;;;;;;;5028223;28;20120;-75
2023/08/20 08:42:34;;;;;;;12.32;10.00;;;;;;;;;;5025657;28;20049;-75
2023/08/20 08:45:00;;;;;;;13.32;11.02;;;;;;;;;;5027045;28;20045;-75
2023/08/20 08:47:26;;;;;;;11.63;10.43;;;;;;;;;;5024799;28;20069;-75
2023/08/20 08:49:56;;;;;;;12.82;10.88;;;;;;;;;;5026592;28;20096;-75
2023/08/20 08:52:23;;;;;;;12.35;11.20;;;;;;;;;;5026400;28;20037;-75
2023/08/20 08:54:48;;;;;;;12.68;11.43;;;;;;;;;;5023195;28;20038;-75
2023/08/20 08:57:15;;;;;;;12.38;10.90;;;;;;;;;;5026258;28;20047;-75
2023/08/20 08:59:42;;;;;;;14.93;10.93;;;;;;;;;;5025152;28;20064;-74
2023/08/20 09:02:09;;;;;;;11.90;10.32;;;;;;;;;;5025999;28;20038;-75
2023/08/20 09:04:39;;;;;;;18.92;10.50;;;;;;;;;;5024492;28;20475;-75
2023/08/20 09:07:04;;;;;;;11.23;10.05;;;;;;;;;;5024161;28;20109;-75
2023/08/20 09:09:31;;;;;;;10.85;9.75;;;;;;;;;;5026356;28;20132;-75
2023/08/20 09:11:56;;;;;;;14.27;9.80;;;;;;;;;;5026154;28;20061;-75
2023/08/20 09:14:24;;;;;;;11.45;10.27;;;;;;;;;;5024616;28;20183;-75
2023/08/20 09:17:02;;;;;;;14.67;11.27;;;;;;;;;;5025177;28;20041;-75
2023/08/20 09:19:30;;;;;;;11.80;10.52;;;;;;;;;;5026529;28;20341;-75
2023/08/20 09:21:55;;;;;;;11.18;9.82;;;;;;;;;;5021589;28;20033;-75
2023/08/20 09:24:47;;;;;;;13.30;10.25;;;;;;;;;;5026052;28;20179;-75
2023/08/20 09:27:14;;;;;;;11.57;10.23;;;;;;;;;;5026052;28;20033;-76
2023/08/20 09:29:54;;;;;;;12.70;10.45;;;;;;;;;;5027185;28;20441;-75
2023/08/20 09:32:22;;;;;;;11.07;9.80;;;;;;;;;;5026128;28;20686;-75
2023/08/20 09:34:49;;;;;;;17.27;10.00;;;;;;;;;;5028149;28;20033;-75
2023/08/20 09:37:17;;;;;;;12.47;9.80;;;;;;;;;;5027433;28;20029;-75
2023/08/20 09:39:43;;;;;;;11.50;9.95;;;;;;;;;;5025454;28;20049;-75
2023/08/20 09:42:10;;;;;;;12.40;9.98;;;;;;;;;;5026576;28;20111;-75
2023/08/20 09:44:38;;;;;;;11.30;10.15;;;;;;;;;;5026679;28;20041;-75
2023/08/20 09:47:10;;;;;;;11.77;10.60;;;;;;;;;;5022546;28;20040;-75
2023/08/20 09:49:39;;;;;;;11.38;10.20;;;;;;;;;;5024389;28;20052;-75
2023/08/20 09:52:10;;;;;;;11.07;9.98;;;;;;;;;;5024434;28;20071;-75
2023/08/20 09:54:59;;;;;;;11.27;10.27;;;;;;;;;;5022777;28;20056;-75
2023/08/20 09:57:36;;;;;;;12.52;9.63;;;;;;;;;;5024659;28;20112;-75
2023/08/20 10:00:05;;;;;;;12.82;10.02;;;;;;;;;;5026775;28;20444;-75
2023/08/20 10:02:39;;;;;;;10.55;9.55;;;;;;;;;;5022880;28;20124;-75
2023/08/20 10:05:06;;;;;;;10.65;9.75;;;;;;;;;;5023849;28;20055;-75
2023/08/20 10:07:32;;;;;;;13.25;9.98;;;;;;;;;;5025359;28;20459;-75
2023/08/20 10:10:00;;;;;;;14.02;10.02;;;;;;;;;;5026368;28;20037;-75
2023/08/20 10:12:29;;;;;;;11.05;9.30;;;;;;;;;;5024197;28;20459;-75
2023/08/20 10:14:56;;;;;;;10.40;9.40;;;;;;;;;;5024845;28;20030;-75
2023/08/20 10:17:25;;;;;;;9.82;8.88;;;;;;;;;;5024150;28;20108;-75
2023/08/20 10:19:54;;;;;;;9.80;8.80;;;;;;;;;;5025067;28;20040;-75
2023/08/20 10:22:20;;;;;;;10.63;9.15;;;;;;;;;;5006997;28;20048;-74
2023/08/20 10:24:51;;;;;;;10.73;9.30;;;;;;;;;;5024959;28;20283;-75
2023/08/20 10:27:27;;;;;;;9.88;8.88;;;;;;;;;;5040414;28;20039;-75
2023/08/20 10:29:55;;;;;;;13.45;8.95;;;;;;;;;;5027379;28;20044;-75
2023/08/20 10:32:46;;;;;;;8.88;7.97;;;;;;;;;;5023541;28;20055;-75
2023/08/20 10:35:12;;;;;;;11.10;9.02;;;;;;;;;;5024412;28;20064;-75
2023/08/20 10:37:40;;;;;;;10.88;9.75;;;;;;;;;;5022100;28;20121;-75
2023/08/20 10:40:07;;;;;;;13.50;9.10;;;;;;;;;;5023196;28;20349;-75
2023/08/20 10:42:42;;;;;;;14.18;9.18;;;;;;;;;;5024703;28;20029;-75
2023/08/20 10:45:08;;;;;;;9.55;8.57;;;;;;;;;;5024606;28;20136;-75
2023/08/20 10:47:51;;;;;;;9.98;8.90;;;;;;;;;;4991258;28;20347;-75
2023/08/20 10:50:18;;;;;;;15.88;8.60;;;;;;;;;;5018720;28;20489;-75
2023/08/20 10:52:55;;;;;;;9.20;8.40;;;;;;;;;;5023459;28;20120;-75
2023/08/20 10:55:24;;;;;;;15.13;8.73;;;;;;;;;;5023852;28;20088;-75
2023/08/20 10:58:02;;;;;;;9.25;8.23;;;;;;;;;;5022691;28;20103;-75
2023/08/20 11:00:28;;;;;;;11.27;8.88;;;;;;;;;;5022527;28;20037;-75
2023/08/20 11:02:54;;;;;;;10.27;8.60;;;;;;;;;;5024512;28;20044;-75
2023/08/20 11:05:21;;;;;;;13.70;9.20;;;;;;;;;;5023849;28;20319;-75
2023/08/20 11:07:48;;;;;;;11.20;8.90;;;;;;;;;;5023897;28;20537;-75
2023/08/20 11:10:17;;;;;;;11.00;8.70;;;;;;;;;;5006976;28;20412;-75
2023/08/20 11:12:45;;;;;;;10.48;8.80;;;;;;;;;;5008576;28;20113;-75
2023/08/20 11:15:11;;;;;;;10.85;8.93;;;;;;;;;;5026058;28;20037;-75
2023/08/20 11:17:42;;;;;;;11.32;8.55;;;;;;;;;;5023771;28;20056;-75
2023/08/20 11:20:08;;;;;;;9.18;8.27;;;;;;;;;;5023665;28;20173;-75
2023/08/20 11:22:33;;;;;;;11.60;8.27;;;;;;;;;;5024598;28;20041;-75
2023/08/20 11:25:00;;;;;;;9.50;8.48;;;;;;;;;;5023209;28;20087;-75
2023/08/20 11:27:28;;;;;;;10.95;8.85;;;;;;;;;;5023815;28;20287;-75
2023/08/20 11:29:56;;;;;;;9.52;8.63;;;;;;;;;;5025270;28;20068;-75
2023/08/20 11:32:23;;;;;;;10.82;8.90;;;;;;;;;;5022997;28;20045;-75
2023/08/20 11:34:49;;;;;;;9.75;8.75;;;;;;;;;;5021340;28;20033;-75
2023/08/20 11:37:19;;;;;;;10.50;8.38;;;;;;;;;;5024214;28;20332;-75
2023/08/20 11:39:47;;;;;;;9.73;8.75;;;;;;;;;;5022714;28;20400;-75
2023/08/20 11:42:13;;;;;;;9.98;8.15;;;;;;;;;;5021986;28;20176;-75
2023/08/20 11:44:46;;;;;;;9.55;8.65;;;;;;;;;;5023092;28;20116;-75
2023/08/20 11:47:17;;;;;;;14.70;9.32;;;;;;;;;;5029038;28;20552;-75
2023/08/20 11:49:43;;;;;;;12.02;8.68;;;;;;;;;;5029663;28;20029;-75
2023/08/20 11:52:09;;;;;;;13.32;9.48;;;;;;;;;;5025879;28;20330;-75
2023/08/20 11:54:36;;;;;;;10.88;9.05;;;;;;;;;;5026198;28;20041;-75
2023/08/20 11:57:06;;;;;;;10.02;9.13;;;;;;;;;;5026774;28;20400;-76
2023/08/20 11:59:33;;;;;;;10.50;9.50;;;;;;;;;;5025385;28;20052;-76
2023/08/20 12:02:00;;;;;;;11.57;8.68;;;;;;;;;;5010427;28;20045;-76
2023/08/20 12:04:29;;;;;;;11.65;8.82;;;;;;;;;;5027384;28;20033;-75
2023/08/20 12:07:05;;;;;;;11.02;9.60;;;;;;;;;;5028903;28;20052;-76
2023/08/20 12:09:30;;;;;;;12.30;9.40;;;;;;;;;;5025589;28;20132;-75
2023/08/20 12:11:57;;;;;;;9.98;9.00;;;;;;;;;;5030290;28;20108;-75
2023/08/20 12:14:23;;;;;;;10.77;9.75;;;;;;;;;;5026251;28;20111;-75
2023/08/20 12:16:52;;;;;;;9.88;9.02;;;;;;;;;;5026656;28;20026;-75
2023/08/20 12:19:18;;;;;;;11.23;10.00;;;;;;;;;;5027336;28;20045;-75
2023/08/20 12:21:43;;;;;;;10.30;9.20;;;;;;;;;;5026070;28;20049;-75
2023/08/20 12:24:10;;;;;;;14.25;9.82;;;;;;;;;;5027990;28;20083;-75
2023/08/20 12:26:39;;;;;;;11.85;9.50;;;;;;;;;;5025185;28;20491;-75
2023/08/20 12:29:05;;;;;;;10.05;9.13;;;;;;;;;;5025112;28;20074;-75
2023/08/20 12:31:34;;;;;;;12.07;9.65;;;;;;;;;;5028339;28;20115;-75
2023/08/20 12:34:00;;;;;;;11.60;9.45;;;;;;;;;;5026240;28;20101;-75
2023/08/20 12:36:26;;;;;;;11.90;10.20;;;;;;;;;;5027195;28;20041;-75
2023/08/20 12:38:52;;;;;;;16.55;9.80;;;;;;;;;;5025416;28;20124;-75
2023/08/20 12:41:19;;;;;;;11.55;9.77;;;;;;;;;;5026677;28;20140;-75
2023/08/20 12:43:44;;;;;;;10.65;9.65;;;;;;;;;;5026158;28;20107;-75
2023/08/20 12:46:10;;;;;;;12.88;10.45;;;;;;;;;;5026689;28;20033;-75
2023/08/20 12:48:35;;;;;;;11.40;10.20;;;;;;;;;;5026884;28;20127;-75
2023/08/20 12:51:02;;;;;;;10.85;9.75;;;;;;;;;;5026988;28;20558;-75
2023/08/20 12:53:28;;;;;;;11.73;9.95;;;;;;;;;;5024257;28;20049;-75
2023/08/20 12:55:54;;;;;;;11.38;10.25;;;;;;;;;;5025330;28;20131;-75
2023/08/20 12:58:20;;;;;;;13.50;9.70;;;;;;;;;;5057658;28;20038;-75
2023/08/20 13:00:46;;;;;;;11.68;9.93;;;;;;;;;;5026946;28;20152;-75
2023/08/20 13:03:12;;;;;;;10.60;9.65;;;;;;;;;;5008329;28;20033;-75
2023/08/20 13:05:38;;;;;;;11.02;9.57;;;;;;;;;;5026963;28;20038;-75
2023/08/20 13:08:04;;;;;;;12.65;9.80;;;;;;;;;;5025628;28;20483;-74
2023/08/20 13:10:30;;;;;;;11.18;10.15;;;;;;;;;;5025921;28;20037;-74
2023/08/20 13:13:00;;;;;;;10.50;9.50;;;;;;;;;;5024211;28;20120;-74
2023/08/20 13:15:26;;;;;;;10.55;9.43;;;;;;;;;;5024979;28;20025;-75
2023/08/20 13:17:52;;;;;;;12.15;9.90;;;;;;;;;;5025810;28;20107;-75
2023/08/20 13:20:22;;;;;;;10.80;9.73;;;;;;;;;;5020590;28;20037;-75
2023/08/20 13:22:49;;;;;;;11.70;10.50;;;;;;;;;;5024470;28;20037;-74
2023/08/20 13:25:15;;;;;;;10.90;9.50;;;;;;;;;;5024091;28;20051;-75
2023/08/20 13:27:41;;;;;;;10.38;9.52;;;;;;;;;;5026924;28;20047;-75
2023/08/20 13:30:11;;;;;;;15.35;10.57;;;;;;;;;;5023015;28;20086;-75
2023/08/20 13:32:37;;;;;;;10.93;9.75;;;;;;;;;;5025627;28;20044;-74
2023/08/20 13:35:05;;;;;;;11.50;10.30;;;;;;;;;;5025636;28;20456;-75
2023/08/20 13:37:32;;;;;;;11.07;10.05;;;;;;;;;;5024231;28;20116;-74
2023/08/20 13:39:58;;;;;;;13.77;10.55;;;;;;;;;;5022969;28;20192;-74
2023/08/20 13:42:24;;;;;;;10.70;9.70;;;;;;;;;;5025654;28;20025;-75
2023/08/20 13:44:49;;;;;;;14.73;9.93;;;;;;;;;;5026138;28;20068;-75
2023/08/20 13:47:15;;;;;;;10.98;10.18;;;;;;;;;;5023911;28;20033;-74
2023/08/20 13:49:40;;;;;;;11.88;10.75;;;;;;;;;;5026068;28;20044;-75
2023/08/20 13:52:06;;;;;;;11.43;9.80;;;;;;;;;;5027197;28;20053;-74
2023/08/20 13:54:33;;;;;;;13.18;10.05;;;;;;;;;;5024776;28;20116;-74
2023/08/20 13:56:58;;;;;;;10.75;9.75;;;;;;;;;;5023136;28;20052;-73
2023/08/20 13:59:24;;;;;;;10.95;9.95;;;;;;;;;;5026409;28;20453;-74
2023/08/20 14:01:49;;;;;;;10.80;9.77;;;;;;;;;;5023762;28;20555;-73
2023/08/20 14:04:15;;;;;;;10.90;9.90;;;;;;;;;;5023916;28;20493;-73
2023/08/20 14:06:41;;;;;;;12.90;10.13;;;;;;;;;;5024308;28;20215;-74
2023/08/20 14:09:06;;;;;;;11.70;9.70;;;;;;;;;;5024088;28;20041;-73
2023/08/20 14:11:32;;;;;;;12.32;9.85;;;;;;;;;;5026161;28;20037;-74
2023/08/20 14:13:58;;;;;;;10.48;9.48;;;;;;;;;;5025308;28;20037;-74
2023/08/20 14:16:23;;;;;;;10.75;9.65;;;;;;;;;;5023572;28;20037;-73
2023/08/20 14:18:49;;;;;;;11.23;10.10;;;;;;;;;;5024073;28;20049;-73
2023/08/20 14:21:15;;;;;;;10.60;9.52;;;;;;;;;;5025102;28;20065;-73